sensor_id;sensor_type;location;lat;lon;timestamp;temperature;humidity
11991;DHT22;6055;52.522;13.446;2022-12-07T00:01:52;3.10;99.90
11991;DHT22;6055;52.522;13.446;2022-12-07T00:04:18;3.10;99.90
11991;DHT22;6055;52.522;13.446;2022-12-07T00:06:45;3.20;99.90
11991;DHT22;6055;52.522;13.446;2022-12-07T00:09:13;3.20;99.90
11991;DHT22;6055;52.522;13.446;2022-12-07T00:11:39;3.20;99.90
11991;DHT22;6055;52.522;13.446;2022-12-07T00:14:13;3.20;99.90
11991;DHT22;6055;52.522;13.446;2022-12-07T00:16:39;3.20;99.90
11991;DHT22;6055;52.522;13.446;2022-12-07T00:19:05;3.30;99.90
11991;DHT22;6055;52.522;13.446;2022-12-07T00:21:32;3.30;99.90
11991;DHT22;6055;52.522;13.446;2022-12-07T00:23:58;3.20;99.90
11991;DHT22;6055;52.522;13.446;2022-12-07T00:26:30;3.20;99.90
11991;DHT22;6055;52.522;13.446;2022-12-07T00:28:58;3.20;99.90
11991;DHT22;6055;52.522;13.446;2022-12-07T00:31:26;3.30;99.90
11991;DHT22;6055;52.522;13.446;2022-12-07T00:33:52;3.20;99.90
11991;DHT22;6055;52.522;13.446;2022-12-07T00:36:20;3.10;99.90
11991;DHT22;6055;52.522;13.446;2022-12-07T00:38:46;3.10;99.90
11991;DHT22;6055;52.522;13.446;2022-12-07T00:41:30;3.00;99.90
11991;DHT22;6055;52.522;13.446;2022-12-07T00:43:56;3.10;99.90
11991;DHT22;6055;52.522;13.446;2022-12-07T00:46:22;3.00;99.90
11991;DHT22;6055;52.522;13.446;2022-12-07T00:48:51;3.00;99.90
11991;DHT22;6055;52.522;13.446;2022-12-07T00:51:18;3.00;99.90
11991;DHT22;6055;52.522;13.446;2022-12-07T00:53:44;3.00;99.90
11991;DHT22;6055;52.522;13.446;2022-12-07T00:56:18;3.00;99.90
11991;DHT22;6055;52.522;13.446;2022-12-07T00:58:44;3.00;99.90
11991;DHT22;6055;52.522;13.446;2022-12-07T01:01:14;3.00;99.90
11991;DHT22;6055;52.522;13.446;2022-12-07T01:03:39;3.00;99.90
11991;DHT22;6055;52.522;13.446;2022-12-07T01:06:05;3.00;99.90
11991;DHT22;6055;52.522;13.446;2022-12-07T01:08:30;3.00;99.90
11991;DHT22;6055;52.522;13.446;2022-12-07T01:11:07;2.90;99.90
11991;DHT22;6055;52.522;13.446;2022-12-07T01:13:34;2.90;99.90
11991;DHT22;6055;52.522;13.446;2022-12-07T01:16:01;2.80;99.90
11991;DHT22;6055;52.522;13.446;2022-12-07T01:18:28;2.70;99.90
11991;DHT22;6055;52.522;13.446;2022-12-07T01:21:08;2.70;99.90
11991;DHT22;6055;52.522;13.446;2022-12-07T01:23:34;2.80;99.90
11991;DHT22;6055;52.522;13.446;2022-12-07T01:26:07;2.70;99.90
11991;DHT22;6055;52.522;13.446;2022-12-07T01:28:33;2.80;99.90
11991;DHT22;6055;52.522;13.446;2022-12-07T01:31:01;2.80;99.90
11991;DHT22;6055;52.522;13.446;2022-12-07T01:33:31;2.80;99.90
11991;DHT22;6055;52.522;13.446;2022-12-07T01:36:16;2.80;99.90
11991;DHT22;6055;52.522;13.446;2022-12-07T01:38:43;2.80;99.90
11991;DHT22;6055;52.522;13.446;2022-12-07T01:41:09;2.80;99.90
11991;DHT22;6055;52.522;13.446;2022-12-07T01:43:34;2.70;99.90
11991;DHT22;6055;52.522;13.446;2022-12-07T01:46:01;2.70;99.90
11991;DHT22;6055;52.522;13.446;2022-12-07T01:48:40;2.70;99.90
11991;DHT22;6055;52.522;13.446;2022-12-07T01:51:10;2.70;99.90
11991;DHT22;6055;52.522;13.446;2022-12-07T01:53:39;2.70;99.90
11991;DHT22;6055;52.522;13.446;2022-12-07T01:56:10;2.70;99.90
11991;DHT22;6055;52.522;13.446;2022-12-07T01:58:36;2.80;99.90
11991;DHT22;6055;52.522;13.446;2022-12-07T02:01:02;2.80;99.90
11991;DHT22;6055;52.522;13.446;2022-12-07T02:03:47;2.70;99.90
11991;DHT22;6055;52.522;13.446;2022-12-07T02:06:19;2.80;99.90
11991;DHT22;6055;52.522;13.446;2022-12-07T02:08:46;2.70;99.90
11991;DHT22;6055;52.522;13.446;2022-12-07T02:11:11;2.70;99.90
11991;DHT22;6055;52.522;13.446;2022-12-07T02:13:39;2.70;99.90
11991;DHT22;6055;52.522;13.446;2022-12-07T02:24:48;2.70;99.90
11991;DHT22;6055;52.522;13.446;2022-12-07T02:30:04;2.70;99.90
11991;DHT22;6055;52.522;13.446;2022-12-07T02:32:50;2.70;99.90
11991;DHT22;6055;52.522;13.446;2022-12-07T02:35:20;2.70;99.90
11991;DHT22;6055;52.522;13.446;2022-12-07T02:37:55;2.70;99.90
11991;DHT22;6055;52.522;13.446;2022-12-07T02:40:38;2.70;99.90
11991;DHT22;6055;52.522;13.446;2022-12-07T02:43:28;2.70;99.90
11991;DHT22;6055;52.522;13.446;2022-12-07T02:45:58;2.60;99.90
11991;DHT22;6055;52.522;13.446;2022-12-07T02:48:27;2.60;99.90
11991;DHT22;6055;52.522;13.446;2022-12-07T02:50:53;2.60;99.90
11991;DHT22;6055;52.522;13.446;2022-12-07T02:53:36;2.60;99.90
11991;DHT22;6055;52.522;13.446;2022-12-07T03:01:37;2.60;99.90
11991;DHT22;6055;52.522;13.446;2022-12-07T03:07:27;2.60;99.90
11991;DHT22;6055;52.522;13.446;2022-12-07T03:10:00;2.50;99.90
11991;DHT22;6055;52.522;13.446;2022-12-07T03:15:31;2.50;99.90
11991;DHT22;6055;52.522;13.446;2022-12-07T03:18:01;2.50;99.90
11991;DHT22;6055;52.522;13.446;2022-12-07T03:20:29;2.60;99.90
11991;DHT22;6055;52.522;13.446;2022-12-07T03:22:58;2.60;99.90
11991;DHT22;6055;52.522;13.446;2022-12-07T03:25:25;2.50;99.90
11991;DHT22;6055;52.522;13.446;2022-12-07T03:30:24;2.60;99.90
11991;DHT22;6055;52.522;13.446;2022-12-07T03:33:23;2.60;99.90
11991;DHT22;6055;52.522;13.446;2022-12-07T03:36:06;2.60;99.90
11991;DHT22;6055;52.522;13.446;2022-12-07T03:38:50;2.60;99.90
11991;DHT22;6055;52.522;13.446;2022-12-07T03:41:24;2.60;99.90
11991;DHT22;6055;52.522;13.446;2022-12-07T03:43:50;2.60;99.90
11991;DHT22;6055;52.522;13.446;2022-12-07T03:46:50;2.60;99.90
11991;DHT22;6055;52.522;13.446;2022-12-07T03:49:25;2.60;99.90
11991;DHT22;6055;52.522;13.446;2022-12-07T03:55:06;2.60;99.90
11991;DHT22;6055;52.522;13.446;2022-12-07T03:57:34;2.60;99.90
11991;DHT22;6055;52.522;13.446;2022-12-07T04:00:00;2.60;99.90
11991;DHT22;6055;52.522;13.446;2022-12-07T04:02:27;2.60;99.90
11991;DHT22;6055;52.522;13.446;2022-12-07T04:04:54;2.60;99.90
11991;DHT22;6055;52.522;13.446;2022-12-07T04:07:20;2.50;99.90
11991;DHT22;6055;52.522;13.446;2022-12-07T04:09:46;2.50;99.90
11991;DHT22;6055;52.522;13.446;2022-12-07T04:12:11;2.50;99.90
11991;DHT22;6055;52.522;13.446;2022-12-07T04:14:37;2.40;99.90
11991;DHT22;6055;52.522;13.446;2022-12-07T04:17:03;2.40;99.90
11991;DHT22;6055;52.522;13.446;2022-12-07T04:19:31;2.40;99.90
11991;DHT22;6055;52.522;13.446;2022-12-07T04:21:58;2.40;99.90
11991;DHT22;6055;52.522;13.446;2022-12-07T04:24:24;2.40;99.90
11991;DHT22;6055;52.522;13.446;2022-12-07T04:26:50;2.40;99.90
11991;DHT22;6055;52.522;13.446;2022-12-07T04:29:16;2.40;99.90
11991;DHT22;6055;52.522;13.446;2022-12-07T04:31:43;2.40;99.90
11991;DHT22;6055;52.522;13.446;2022-12-07T04:34:09;2.40;99.90
11991;DHT22;6055;52.522;13.446;2022-12-07T04:36:36;2.40;99.90
11991;DHT22;6055;52.522;13.446;2022-12-07T04:39:02;2.40;99.90
11991;DHT22;6055;52.522;13.446;2022-12-07T04:41:27;2.40;99.90
11991;DHT22;6055;52.522;13.446;2022-12-07T04:43:54;2.40;99.90
11991;DHT22;6055;52.522;13.446;2022-12-07T04:46:20;2.40;99.90
11991;DHT22;6055;52.522;13.446;2022-12-07T04:48:46;2.40;99.90
11991;DHT22;6055;52.522;13.446;2022-12-07T04:51:12;2.40;99.90
11991;DHT22;6055;52.522;13.446;2022-12-07T04:53:40;2.40;99.90
11991;DHT22;6055;52.522;13.446;2022-12-07T04:56:06;2.40;99.90
11991;DHT22;6055;52.522;13.446;2022-12-07T04:58:31;2.40;99.90
11991;DHT22;6055;52.522;13.446;2022-12-07T05:00:57;2.40;99.90
11991;DHT22;6055;52.522;13.446;2022-12-07T05:03:22;2.40;99.90
11991;DHT22;6055;52.522;13.446;2022-12-07T05:05:48;2.40;99.90
11991;DHT22;6055;52.522;13.446;2022-12-07T05:08:13;2.50;99.90
11991;DHT22;6055;52.522;13.446;2022-12-07T05:10:39;2.50;99.90
11991;DHT22;6055;52.522;13.446;2022-12-07T05:13:04;2.50;99.90
11991;DHT22;6055;52.522;13.446;2022-12-07T05:15:30;2.50;99.90
11991;DHT22;6055;52.522;13.446;2022-12-07T05:17:55;2.50;99.90
11991;DHT22;6055;52.522;13.446;2022-12-07T05:20:21;2.50;99.90
11991;DHT22;6055;52.522;13.446;2022-12-07T05:22:49;2.50;99.90
11991;DHT22;6055;52.522;13.446;2022-12-07T05:25:15;2.60;99.90
11991;DHT22;6055;52.522;13.446;2022-12-07T05:27:40;2.50;99.90
11991;DHT22;6055;52.522;13.446;2022-12-07T05:30:06;2.60;99.90
11991;DHT22;6055;52.522;13.446;2022-12-07T05:32:32;2.60;99.90
11991;DHT22;6055;52.522;13.446;2022-12-07T05:34:57;2.60;99.90
11991;DHT22;6055;52.522;13.446;2022-12-07T05:37:22;2.70;99.90
11991;DHT22;6055;52.522;13.446;2022-12-07T05:39:48;2.70;99.90
11991;DHT22;6055;52.522;13.446;2022-12-07T05:42:13;2.70;99.90
11991;DHT22;6055;52.522;13.446;2022-12-07T05:44:40;2.70;99.90
11991;DHT22;6055;52.522;13.446;2022-12-07T05:47:06;2.70;99.90
11991;DHT22;6055;52.522;13.446;2022-12-07T05:49:31;2.70;99.90
11991;DHT22;6055;52.522;13.446;2022-12-07T05:51:57;2.80;99.90
11991;DHT22;6055;52.522;13.446;2022-12-07T05:54:23;2.80;99.90
11991;DHT22;6055;52.522;13.446;2022-12-07T05:56:51;2.80;99.90
11991;DHT22;6055;52.522;13.446;2022-12-07T05:59:17;2.90;99.90
11991;DHT22;6055;52.522;13.446;2022-12-07T06:01:57;2.90;99.90
11991;DHT22;6055;52.522;13.446;2022-12-07T06:04:23;2.90;99.90
11991;DHT22;6055;52.522;13.446;2022-12-07T06:06:50;2.90;99.90
11991;DHT22;6055;52.522;13.446;2022-12-07T06:09:15;3.00;99.90
11991;DHT22;6055;52.522;13.446;2022-12-07T06:11:41;3.00;99.90
11991;DHT22;6055;52.522;13.446;2022-12-07T06:14:26;3.00;99.90
11991;DHT22;6055;52.522;13.446;2022-12-07T06:16:51;3.10;99.90
11991;DHT22;6055;52.522;13.446;2022-12-07T06:19:17;3.10;99.90
11991;DHT22;6055;52.522;13.446;2022-12-07T06:21:43;3.10;99.90
11991;DHT22;6055;52.522;13.446;2022-12-07T06:24:11;3.20;99.90
11991;DHT22;6055;52.522;13.446;2022-12-07T06:26:37;3.10;99.90
11991;DHT22;6055;52.522;13.446;2022-12-07T06:29:03;3.20;99.90
11991;DHT22;6055;52.522;13.446;2022-12-07T06:31:28;3.20;99.90
11991;DHT22;6055;52.522;13.446;2022-12-07T06:33:58;3.20;99.90
11991;DHT22;6055;52.522;13.446;2022-12-07T06:36:24;3.20;99.90
11991;DHT22;6055;52.522;13.446;2022-12-07T06:38:49;3.20;99.90
11991;DHT22;6055;52.522;13.446;2022-12-07T06:41:15;3.20;99.90
11991;DHT22;6055;52.522;13.446;2022-12-07T06:43:40;3.20;99.90
11991;DHT22;6055;52.522;13.446;2022-12-07T06:46:07;3.20;99.90
11991;DHT22;6055;52.522;13.446;2022-12-07T06:48:32;3.20;99.90
11991;DHT22;6055;52.522;13.446;2022-12-07T06:50:58;3.20;99.90
11991;DHT22;6055;52.522;13.446;2022-12-07T06:53:23;3.20;99.90
11991;DHT22;6055;52.522;13.446;2022-12-07T06:55:49;3.30;99.90
11991;DHT22;6055;52.522;13.446;2022-12-07T06:58:15;3.30;99.90
11991;DHT22;6055;52.522;13.446;2022-12-07T07:00:40;3.40;99.90
11991;DHT22;6055;52.522;13.446;2022-12-07T07:03:06;3.40;99.90
11991;DHT22;6055;52.522;13.446;2022-12-07T07:05:31;3.40;99.90
11991;DHT22;6055;52.522;13.446;2022-12-07T07:07:57;3.40;99.90
11991;DHT22;6055;52.522;13.446;2022-12-07T07:10:22;3.40;99.90
11991;DHT22;6055;52.522;13.446;2022-12-07T07:12:48;3.50;99.90
11991;DHT22;6055;52.522;13.446;2022-12-07T07:15:13;3.50;99.90
11991;DHT22;6055;52.522;13.446;2022-12-07T07:17:39;3.50;99.90
11991;DHT22;6055;52.522;13.446;2022-12-07T07:20:05;3.60;99.90
11991;DHT22;6055;52.522;13.446;2022-12-07T07:22:31;3.60;99.90
11991;DHT22;6055;52.522;13.446;2022-12-07T07:24:56;3.60;99.90
11991;DHT22;6055;52.522;13.446;2022-12-07T07:27:22;3.70;99.90
11991;DHT22;6055;52.522;13.446;2022-12-07T07:29:47;3.70;99.90
11991;DHT22;6055;52.522;13.446;2022-12-07T07:32:13;3.70;99.90
11991;DHT22;6055;52.522;13.446;2022-12-07T07:34:39;3.70;99.90
11991;DHT22;6055;52.522;13.446;2022-12-07T07:37:04;3.70;99.90
11991;DHT22;6055;52.522;13.446;2022-12-07T07:39:30;3.70;99.90
11991;DHT22;6055;52.522;13.446;2022-12-07T07:41:55;3.80;99.90
11991;DHT22;6055;52.522;13.446;2022-12-07T07:44:21;3.70;99.90
11991;DHT22;6055;52.522;13.446;2022-12-07T07:46:46;3.70;99.90
11991;DHT22;6055;52.522;13.446;2022-12-07T07:49:12;3.70;99.90
11991;DHT22;6055;52.522;13.446;2022-12-07T07:51:38;3.70;99.90
11991;DHT22;6055;52.522;13.446;2022-12-07T07:54:03;3.70;99.90
11991;DHT22;6055;52.522;13.446;2022-12-07T07:56:29;3.80;99.90
11991;DHT22;6055;52.522;13.446;2022-12-07T07:58:54;3.80;99.90
11991;DHT22;6055;52.522;13.446;2022-12-07T08:01:23;3.80;99.90
11991;DHT22;6055;52.522;13.446;2022-12-07T08:03:49;3.90;99.90
11991;DHT22;6055;52.522;13.446;2022-12-07T08:06:17;3.90;99.90
11991;DHT22;6055;52.522;13.446;2022-12-07T08:08:43;3.80;99.90
11991;DHT22;6055;52.522;13.446;2022-12-07T08:11:11;3.80;99.90
11991;DHT22;6055;52.522;13.446;2022-12-07T08:13:37;3.90;99.90
11991;DHT22;6055;52.522;13.446;2022-12-07T08:16:09;3.90;99.90
11991;DHT22;6055;52.522;13.446;2022-12-07T08:18:39;3.90;99.90
11991;DHT22;6055;52.522;13.446;2022-12-07T08:21:12;3.90;99.90
11991;DHT22;6055;52.522;13.446;2022-12-07T08:23:38;3.90;99.90
11991;DHT22;6055;52.522;13.446;2022-12-07T08:26:05;4.00;99.90
11991;DHT22;6055;52.522;13.446;2022-12-07T08:28:31;4.00;99.90
11991;DHT22;6055;52.522;13.446;2022-12-07T08:31:02;4.00;99.90
11991;DHT22;6055;52.522;13.446;2022-12-07T08:33:34;4.00;99.90
11991;DHT22;6055;52.522;13.446;2022-12-07T08:36:05;4.10;99.90
11991;DHT22;6055;52.522;13.446;2022-12-07T08:38:37;4.10;99.90
11991;DHT22;6055;52.522;13.446;2022-12-07T08:41:03;4.10;99.90
11991;DHT22;6055;52.522;13.446;2022-12-07T08:43:35;4.10;99.90
11991;DHT22;6055;52.522;13.446;2022-12-07T08:46:21;4.10;99.90
11991;DHT22;6055;52.522;13.446;2022-12-07T08:51:31;4.20;99.90
11991;DHT22;6055;52.522;13.446;2022-12-07T08:53:58;4.10;99.90
11991;DHT22;6055;52.522;13.446;2022-12-07T08:56:31;4.10;99.90
11991;DHT22;6055;52.522;13.446;2022-12-07T08:58:58;4.10;99.90
11991;DHT22;6055;52.522;13.446;2022-12-07T09:01:23;4.10;99.90
11991;DHT22;6055;52.522;13.446;2022-12-07T09:03:51;4.10;99.90
11991;DHT22;6055;52.522;13.446;2022-12-07T09:06:19;4.10;99.90
11991;DHT22;6055;52.522;13.446;2022-12-07T09:08:48;4.10;99.90
11991;DHT22;6055;52.522;13.446;2022-12-07T09:11:14;4.10;99.90
11991;DHT22;6055;52.522;13.446;2022-12-07T09:13:40;4.10;99.90
11991;DHT22;6055;52.522;13.446;2022-12-07T09:16:06;4.10;99.90
11991;DHT22;6055;52.522;13.446;2022-12-07T09:18:31;4.10;99.90
11991;DHT22;6055;52.522;13.446;2022-12-07T09:20:57;4.10;99.90
11991;DHT22;6055;52.522;13.446;2022-12-07T09:23:25;4.20;99.90
11991;DHT22;6055;52.522;13.446;2022-12-07T09:25:51;4.10;99.90
11991;DHT22;6055;52.522;13.446;2022-12-07T09:28:16;4.10;99.90
11991;DHT22;6055;52.522;13.446;2022-12-07T09:30:46;4.00;99.90
11991;DHT22;6055;52.522;13.446;2022-12-07T09:33:13;4.00;99.90
11991;DHT22;6055;52.522;13.446;2022-12-07T09:35:46;4.00;99.90
11991;DHT22;6055;52.522;13.446;2022-12-07T09:38:12;4.00;99.90
11991;DHT22;6055;52.522;13.446;2022-12-07T09:40:38;4.00;99.90
11991;DHT22;6055;52.522;13.446;2022-12-07T09:43:04;3.90;99.90
11991;DHT22;6055;52.522;13.446;2022-12-07T09:45:34;3.90;99.90
11991;DHT22;6055;52.522;13.446;2022-12-07T09:48:01;3.80;99.90
11991;DHT22;6055;52.522;13.446;2022-12-07T09:50:30;3.80;99.90
11991;DHT22;6055;52.522;13.446;2022-12-07T09:53:24;3.80;99.90
11991;DHT22;6055;52.522;13.446;2022-12-07T09:55:50;3.80;99.90
11991;DHT22;6055;52.522;13.446;2022-12-07T09:58:26;3.80;99.90
11991;DHT22;6055;52.522;13.446;2022-12-07T10:01:14;3.80;99.90
11991;DHT22;6055;52.522;13.446;2022-12-07T10:03:52;3.80;99.90
11991;DHT22;6055;52.522;13.446;2022-12-07T10:06:18;3.80;99.90
11991;DHT22;6055;52.522;13.446;2022-12-07T10:08:44;3.80;99.90
11991;DHT22;6055;52.522;13.446;2022-12-07T10:11:10;3.80;99.90
11991;DHT22;6055;52.522;13.446;2022-12-07T10:13:39;3.80;99.90
11991;DHT22;6055;52.522;13.446;2022-12-07T10:16:05;3.80;99.90
11991;DHT22;6055;52.522;13.446;2022-12-07T10:18:40;3.80;99.90
11991;DHT22;6055;52.522;13.446;2022-12-07T10:21:13;3.80;99.90
11991;DHT22;6055;52.522;13.446;2022-12-07T10:23:42;3.80;99.90
11991;DHT22;6055;52.522;13.446;2022-12-07T10:26:31;3.70;99.90
11991;DHT22;6055;52.522;13.446;2022-12-07T10:29:20;3.70;99.90
11991;DHT22;6055;52.522;13.446;2022-12-07T10:31:57;3.80;99.90
11991;DHT22;6055;52.522;13.446;2022-12-07T10:34:34;3.70;99.90
11991;DHT22;6055;52.522;13.446;2022-12-07T10:39:26;3.80;99.90
11991;DHT22;6055;52.522;13.446;2022-12-07T10:41:59;4.10;99.90
11991;DHT22;6055;52.522;13.446;2022-12-07T10:44:30;4.30;99.90
11991;DHT22;6055;52.522;13.446;2022-12-07T10:47:19;4.40;99.90
11991;DHT22;6055;52.522;13.446;2022-12-07T10:50:13;4.40;99.90
11991;DHT22;6055;52.522;13.446;2022-12-07T10:52:46;4.30;99.90
11991;DHT22;6055;52.522;13.446;2022-12-07T11:07:18;3.90;99.90
11991;DHT22;6055;52.522;13.446;2022-12-07T11:13:01;3.90;99.90
11991;DHT22;6055;52.522;13.446;2022-12-07T11:15:53;4.00;99.90
11991;DHT22;6055;52.522;13.446;2022-12-07T11:21:58;4.00;99.90
11991;DHT22;6055;52.522;13.446;2022-12-07T11:33:02;4.00;99.90
11991;DHT22;6055;52.522;13.446;2022-12-07T11:38:18;4.10;99.90
11991;DHT22;6055;52.522;13.446;2022-12-07T11:40:53;4.10;99.90
11991;DHT22;6055;52.522;13.446;2022-12-07T11:43:34;4.10;99.90
11991;DHT22;6055;52.522;13.446;2022-12-07T11:51:59;4.20;99.90
11991;DHT22;6055;52.522;13.446;2022-12-07T11:54:32;4.20;99.90
11991;DHT22;6055;52.522;13.446;2022-12-07T12:05:38;4.40;99.90
11991;DHT22;6055;52.522;13.446;2022-12-07T12:24:39;4.50;99.90
11991;DHT22;6055;52.522;13.446;2022-12-07T12:27:35;4.50;99.90
11991;DHT22;6055;52.522;13.446;2022-12-07T12:30:05;4.50;99.90
11991;DHT22;6055;52.522;13.446;2022-12-07T12:32:39;4.50;99.90
11991;DHT22;6055;52.522;13.446;2022-12-07T12:35:44;4.50;99.90
11991;DHT22;6055;52.522;13.446;2022-12-07T12:38:21;4.50;99.90
11991;DHT22;6055;52.522;13.446;2022-12-07T12:40:56;4.60;99.90
11991;DHT22;6055;52.522;13.446;2022-12-07T12:43:44;4.50;99.90
11991;DHT22;6055;52.522;13.446;2022-12-07T12:49:58;4.60;99.90
11991;DHT22;6055;52.522;13.446;2022-12-07T12:55:48;4.60;99.90
11991;DHT22;6055;52.522;13.446;2022-12-07T12:58:28;4.70;99.90
11991;DHT22;6055;52.522;13.446;2022-12-07T13:04:02;4.60;99.90
11991;DHT22;6055;52.522;13.446;2022-12-07T13:06:36;4.60;99.90
11991;DHT22;6055;52.522;13.446;2022-12-07T13:09:26;4.50;99.90
11991;DHT22;6055;52.522;13.446;2022-12-07T13:12:21;4.60;99.90
11991;DHT22;6055;52.522;13.446;2022-12-07T13:14:58;4.60;99.90
11991;DHT22;6055;52.522;13.446;2022-12-07T13:20:08;4.70;99.90
11991;DHT22;6055;52.522;13.446;2022-12-07T13:22:35;4.70;99.90
11991;DHT22;6055;52.522;13.446;2022-12-07T13:28:25;4.70;99.90
11991;DHT22;6055;52.522;13.446;2022-12-07T13:31:52;4.70;99.90
11991;DHT22;6055;52.522;13.446;2022-12-07T13:34:39;4.80;99.90
11991;DHT22;6055;52.522;13.446;2022-12-07T13:37:15;4.80;99.90
11991;DHT22;6055;52.522;13.446;2022-12-07T13:39:52;4.80;99.90
11991;DHT22;6055;52.522;13.446;2022-12-07T13:42:29;4.70;99.90
11991;DHT22;6055;52.522;13.446;2022-12-07T13:44:57;4.70;99.90
11991;DHT22;6055;52.522;13.446;2022-12-07T13:47:43;4.70;99.90
11991;DHT22;6055;52.522;13.446;2022-12-07T13:50:28;4.70;99.90
11991;DHT22;6055;52.522;13.446;2022-12-07T13:53:00;4.70;99.90
11991;DHT22;6055;52.522;13.446;2022-12-07T13:55:29;4.70;99.90
11991;DHT22;6055;52.522;13.446;2022-12-07T13:58:02;4.70;99.90
11991;DHT22;6055;52.522;13.446;2022-12-07T14:00:28;4.70;99.90
11991;DHT22;6055;52.522;13.446;2022-12-07T14:05:37;4.70;99.90
11991;DHT22;6055;52.522;13.446;2022-12-07T14:13:37;4.60;99.90
11991;DHT22;6055;52.522;13.446;2022-12-07T14:16:27;4.70;99.90
11991;DHT22;6055;52.522;13.446;2022-12-07T14:18:58;4.70;99.90
11991;DHT22;6055;52.522;13.446;2022-12-07T14:21:33;4.60;99.90
11991;DHT22;6055;52.522;13.446;2022-12-07T14:24:18;4.70;99.90
11991;DHT22;6055;52.522;13.446;2022-12-07T14:29:43;4.60;99.90
11991;DHT22;6055;52.522;13.446;2022-12-07T14:32:22;4.60;99.90
11991;DHT22;6055;52.522;13.446;2022-12-07T14:35:00;4.60;99.90
11991;DHT22;6055;52.522;13.446;2022-12-07T14:37:27;4.60;99.90
11991;DHT22;6055;52.522;13.446;2022-12-07T14:39:56;4.50;99.90
11991;DHT22;6055;52.522;13.446;2022-12-07T14:42:24;4.50;99.90
11991;DHT22;6055;52.522;13.446;2022-12-07T14:45:19;4.50;99.90
11991;DHT22;6055;52.522;13.446;2022-12-07T14:48:06;4.50;99.90
11991;DHT22;6055;52.522;13.446;2022-12-07T14:50:47;4.50;99.90
11991;DHT22;6055;52.522;13.446;2022-12-07T14:53:19;4.40;99.90
11991;DHT22;6055;52.522;13.446;2022-12-07T14:55:48;4.40;99.90
11991;DHT22;6055;52.522;13.446;2022-12-07T14:58:19;4.30;99.90
11991;DHT22;6055;52.522;13.446;2022-12-07T15:00:45;4.40;99.90
11991;DHT22;6055;52.522;13.446;2022-12-07T15:03:15;4.40;99.90
11991;DHT22;6055;52.522;13.446;2022-12-07T15:05:46;4.30;99.90
11991;DHT22;6055;52.522;13.446;2022-12-07T15:08:12;4.30;99.90
11991;DHT22;6055;52.522;13.446;2022-12-07T15:10:38;4.30;99.90
11991;DHT22;6055;52.522;13.446;2022-12-07T15:13:11;4.30;99.90
11991;DHT22;6055;52.522;13.446;2022-12-07T15:16:08;4.20;99.90
11991;DHT22;6055;52.522;13.446;2022-12-07T15:18:38;4.20;99.90
11991;DHT22;6055;52.522;13.446;2022-12-07T15:24:41;4.10;99.90
11991;DHT22;6055;52.522;13.446;2022-12-07T15:27:18;4.00;99.90
11991;DHT22;6055;52.522;13.446;2022-12-07T15:29:56;4.00;99.90
11991;DHT22;6055;52.522;13.446;2022-12-07T15:32:49;4.00;99.90
11991;DHT22;6055;52.522;13.446;2022-12-07T15:35:39;4.00;99.90
11991;DHT22;6055;52.522;13.446;2022-12-07T15:38:22;3.90;99.90
11991;DHT22;6055;52.522;13.446;2022-12-07T15:41:06;3.90;99.90
11991;DHT22;6055;52.522;13.446;2022-12-07T15:43:40;3.90;99.90
11991;DHT22;6055;52.522;13.446;2022-12-07T15:46:37;4.00;99.90
11991;DHT22;6055;52.522;13.446;2022-12-07T15:49:12;4.10;99.90
11991;DHT22;6055;52.522;13.446;2022-12-07T15:51:42;4.00;99.90
11991;DHT22;6055;52.522;13.446;2022-12-07T15:54:49;4.10;99.90
11991;DHT22;6055;52.522;13.446;2022-12-07T15:57:32;4.10;99.90
11991;DHT22;6055;52.522;13.446;2022-12-07T16:00:13;4.00;99.90
11991;DHT22;6055;52.522;13.446;2022-12-07T16:02:39;4.00;99.90
11991;DHT22;6055;52.522;13.446;2022-12-07T16:05:04;4.00;99.90
11991;DHT22;6055;52.522;13.446;2022-12-07T16:10:40;4.40;99.90
11991;DHT22;6055;52.522;13.446;2022-12-07T16:13:08;4.40;99.90
11991;DHT22;6055;52.522;13.446;2022-12-07T16:15:38;4.50;99.90
11991;DHT22;6055;52.522;13.446;2022-12-07T16:18:03;4.60;99.90
11991;DHT22;6055;52.522;13.446;2022-12-07T16:20:29;4.60;99.90
11991;DHT22;6055;52.522;13.446;2022-12-07T16:22:54;4.60;99.90
11991;DHT22;6055;52.522;13.446;2022-12-07T16:25:20;4.60;99.90
11991;DHT22;6055;52.522;13.446;2022-12-07T16:27:45;4.50;99.90
11991;DHT22;6055;52.522;13.446;2022-12-07T16:30:12;4.50;99.90
11991;DHT22;6055;52.522;13.446;2022-12-07T16:32:39;4.50;99.90
11991;DHT22;6055;52.522;13.446;2022-12-07T16:35:04;4.40;99.90
11991;DHT22;6055;52.522;13.446;2022-12-07T16:37:30;4.40;99.90
11991;DHT22;6055;52.522;13.446;2022-12-07T16:39:55;4.30;99.90
11991;DHT22;6055;52.522;13.446;2022-12-07T16:42:21;4.20;99.90
11991;DHT22;6055;52.522;13.446;2022-12-07T16:44:46;4.10;99.90
11991;DHT22;6055;52.522;13.446;2022-12-07T16:47:12;4.00;99.90
11991;DHT22;6055;52.522;13.446;2022-12-07T16:49:37;3.90;99.90
11991;DHT22;6055;52.522;13.446;2022-12-07T16:52:03;3.90;99.90
11991;DHT22;6055;52.522;13.446;2022-12-07T16:54:29;3.80;99.90
11991;DHT22;6055;52.522;13.446;2022-12-07T16:57:00;3.70;99.90
11991;DHT22;6055;52.522;13.446;2022-12-07T16:59:31;3.70;99.90
11991;DHT22;6055;52.522;13.446;2022-12-07T17:02:07;3.70;99.90
11991;DHT22;6055;52.522;13.446;2022-12-07T17:04:38;3.70;99.90
11991;DHT22;6055;52.522;13.446;2022-12-07T17:07:10;3.60;99.90
11991;DHT22;6055;52.522;13.446;2022-12-07T17:09:36;3.60;99.90
11991;DHT22;6055;52.522;13.446;2022-12-07T17:12:02;3.60;99.90
11991;DHT22;6055;52.522;13.446;2022-12-07T17:14:27;3.60;99.90
11991;DHT22;6055;52.522;13.446;2022-12-07T17:17:11;3.50;99.90
11991;DHT22;6055;52.522;13.446;2022-12-07T17:19:37;3.60;99.90
11991;DHT22;6055;52.522;13.446;2022-12-07T17:22:02;3.50;99.90
11991;DHT22;6055;52.522;13.446;2022-12-07T17:24:28;3.50;99.90
11991;DHT22;6055;52.522;13.446;2022-12-07T17:26:53;3.50;99.90
11991;DHT22;6055;52.522;13.446;2022-12-07T17:29:19;3.50;99.90
11991;DHT22;6055;52.522;13.446;2022-12-07T17:31:48;3.40;99.90
11991;DHT22;6055;52.522;13.446;2022-12-07T17:34:15;3.50;99.90
11991;DHT22;6055;52.522;13.446;2022-12-07T17:36:52;3.40;99.90
11991;DHT22;6055;52.522;13.446;2022-12-07T17:39:20;3.40;99.90
11991;DHT22;6055;52.522;13.446;2022-12-07T17:41:46;3.40;99.90
11991;DHT22;6055;52.522;13.446;2022-12-07T17:44:31;3.40;99.90
11991;DHT22;6055;52.522;13.446;2022-12-07T17:46:57;3.40;99.90
11991;DHT22;6055;52.522;13.446;2022-12-07T17:49:24;3.40;99.90
11991;DHT22;6055;52.522;13.446;2022-12-07T17:51:50;3.30;99.90
11991;DHT22;6055;52.522;13.446;2022-12-07T17:54:35;3.30;99.90
11991;DHT22;6055;52.522;13.446;2022-12-07T17:57:00;3.30;99.90
11991;DHT22;6055;52.522;13.446;2022-12-07T17:59:34;3.30;99.90
11991;DHT22;6055;52.522;13.446;2022-12-07T18:01:59;3.30;99.90
11991;DHT22;6055;52.522;13.446;2022-12-07T18:04:25;3.20;99.90
11991;DHT22;6055;52.522;13.446;2022-12-07T18:06:51;3.20;99.90
11991;DHT22;6055;52.522;13.446;2022-12-07T18:09:23;3.20;99.90
11991;DHT22;6055;52.522;13.446;2022-12-07T18:11:52;3.20;99.90
11991;DHT22;6055;52.522;13.446;2022-12-07T18:14:17;3.20;99.90
11991;DHT22;6055;52.522;13.446;2022-12-07T18:16:43;3.20;99.90